Time;durP1;ratioP1;P1;durP2;ratioP2;P2;SDS_P1;SDS_P2;PMS_P1;PMS_P2;Temp;Humidity;BMP_temperature;BMP_pressure;BME280_temperature;BME280_humidity;BME280_pressure;Samples;Min_cycle;Max_cycle;Signal;HPM_P1;HPM_P2
2021/01/29 00:00:58;;;;;;;188.02;53.63;;;5.50;99.90;;;;;;5073616;28;20055;-92
2021/01/29 00:03:24;;;;;;;160.52;51.72;;;5.60;99.90;;;;;;5075184;28;20028;-91
2021/01/29 00:05:53;;;;;;;228.23;56.35;;;5.60;99.90;;;;;;5081892;28;20035;-90
2021/01/29 00:08:19;;;;;;;279.05;61.90;;;5.60;99.90;;;;;;5081750;28;20024;-89
2021/01/29 00:10:45;;;;;;;167.35;49.42;;;5.60;99.90;;;;;;5079375;28;20024;-90
2021/01/29 00:13:12;;;;;;;160.10;47.70;;;5.60;99.90;;;;;;5078177;28;20032;-89
2021/01/29 00:15:39;;;;;;;312.92;71.40;;;5.70;99.90;;;;;;5078166;28;20051;-89
2021/01/29 00:18:05;;;;;;;237.32;60.60;;;5.60;99.90;;;;;;5060632;28;20029;-90
2021/01/29 00:20:30;;;;;;;228.70;57.33;;;5.60;99.90;;;;;;5043242;28;20072;-89
2021/01/29 00:22:58;;;;;;;261.17;63.38;;;5.70;99.90;;;;;;5059775;28;20035;-89
2021/01/29 00:25:28;;;;;;;151.93;48.38;;;5.70;99.90;;;;;;5076654;28;20033;-88
2021/01/29 00:27:54;;;;;;;126.43;43.63;;;5.80;99.90;;;;;;5076337;28;20028;-89
2021/01/29 00:30:23;;;;;;;264.10;63.97;;;5.70;99.90;;;;;;5077306;28;20355;-90
2021/01/29 00:32:50;;;;;;;198.73;50.50;;;5.70;99.90;;;;;;5076011;28;20039;-89
2021/01/29 00:35:16;;;;;;;260.98;62.00;;;5.70;99.90;;;;;;5075918;28;20056;-90
2021/01/29 00:37:43;;;;;;;283.08;64.75;;;5.70;99.90;;;;;;5076236;28;20036;-90
2021/01/29 00:40:09;;;;;;;199.82;53.95;;;5.70;99.90;;;;;;5077308;28;20035;-90
2021/01/29 00:42:35;;;;;;;221.68;59.05;;;5.60;99.90;;;;;;5076309;28;20709;-90
2021/01/29 00:45:02;;;;;;;230.65;54.65;;;5.60;99.90;;;;;;5077133;28;20437;-89
2021/01/29 00:47:28;;;;;;;375.42;76.70;;;5.70;99.90;;;;;;5076368;28;20029;-89
2021/01/29 00:49:54;;;;;;;213.23;53.47;;;5.70;99.90;;;;;;5076238;28;20124;-90
2021/01/29 00:52:20;;;;;;;355.23;78.10;;;5.70;99.90;;;;;;5059808;28;20036;-90
2021/01/29 00:54:53;;;;;;;423.83;88.85;;;5.70;99.90;;;;;;5076612;28;20028;-90
2021/01/29 00:57:19;;;;;;;301.85;67.80;;;5.70;99.90;;;;;;5076370;28;20031;-90
2021/01/29 00:59:44;;;;;;;382.17;78.70;;;5.60;99.90;;;;;;5076733;28;20115;-89
2021/01/29 01:02:10;;;;;;;415.02;82.70;;;5.70;99.90;;;;;;5043235;28;20081;-88
2021/01/29 01:04:41;;;;;;;173.25;51.20;;;5.70;99.90;;;;;;5075995;28;20111;-89
2021/01/29 01:07:09;;;;;;;176.60;48.55;;;5.80;99.90;;;;;;5059993;28;20539;-90
2021/01/29 01:09:37;;;;;;;255.70;62.38;;;5.80;99.90;;;;;;5076863;28;20163;-90
2021/01/29 01:12:03;;;;;;;188.10;53.53;;;5.90;99.90;;;;;;5080702;28;20055;-89
2021/01/29 01:14:32;;;;;;;157.90;51.72;;;5.90;99.90;;;;;;5080969;28;20040;-90
2021/01/29 01:17:03;;;;;;;258.83;64.05;;;6.00;99.90;;;;;;5076706;28;20170;-90
2021/01/29 01:19:34;;;;;;;166.70;49.83;;;6.00;99.90;;;;;;5076082;28;20046;-89
2021/01/29 01:22:00;;;;;;;146.35;47.30;;;6.10;99.90;;;;;;5076219;28;20020;-90
2021/01/29 01:24:30;;;;;;;268.52;67.50;;;6.10;99.90;;;;;;5075977;28;20120;-90
2021/01/29 01:26:55;;;;;;;153.35;49.78;;;6.20;99.90;;;;;;5075882;28;20090;-90
2021/01/29 01:29:21;;;;;;;164.35;49.85;;;6.10;99.90;;;;;;5075014;28;20470;-91
2021/01/29 01:31:48;;;;;;;192.60;55.35;;;6.20;99.90;;;;;;5058938;28;20469;-89
2021/01/29 01:34:14;;;;;;;162.10;51.03;;;6.20;99.90;;;;;;5076083;28;20083;-90
2021/01/29 01:36:39;;;;;;;240.88;59.35;;;6.30;99.90;;;;;;5074702;28;20029;-90
2021/01/29 01:39:11;;;;;;;198.65;55.20;;;6.30;99.90;;;;;;5075813;28;20031;-90
2021/01/29 01:41:37;;;;;;;200.88;56.95;;;6.30;99.90;;;;;;5075524;28;20027;-90
2021/01/29 01:44:33;;;;;;;220.65;61.45;;;6.30;99.90;;;;;;5075029;28;20029;-90
2021/01/29 01:47:28;;;;;;;159.00;52.03;;;6.30;99.90;;;;;;5076756;28;20025;-90
2021/01/29 01:50:01;;;;;;;172.88;53.10;;;6.40;99.90;;;;;;5069408;28;20037;-89
2021/01/29 01:52:37;;;;;;;144.55;46.28;;;6.40;99.90;;;;;;5076262;28;20392;-89
2021/01/29 01:55:21;;;;;;;200.55;57.03;;;6.40;99.90;;;;;;5076397;28;20033;-89
2021/01/29 01:57:54;;;;;;;187.27;55.28;;;6.50;99.90;;;;;;5077365;28;20043;-89
2021/01/29 02:00:26;;;;;;;220.88;66.97;;;6.50;99.90;;;;;;5079332;28;20023;-90
2021/01/29 02:02:58;;;;;;;159.73;51.70;;;6.60;99.90;;;;;;5075343;28;20025;-90
2021/01/29 02:05:35;;;;;;;343.67;81.78;;;6.60;99.90;;;;;;5059921;28;20036;-88
2021/01/29 02:08:16;;;;;;;180.63;52.15;;;6.60;99.90;;;;;;5059759;28;20036;-89
2021/01/29 02:10:42;;;;;;;214.02;55.08;;;6.60;99.90;;;;;;5076084;28;20048;-89
2021/01/29 02:13:11;;;;;;;131.95;49.33;;;6.60;99.90;;;;;;5075111;28;20032;-89
2021/01/29 02:15:55;;;;;;;245.75;66.75;;;6.60;99.90;;;;;;5057933;28;20074;-89
2021/01/29 02:19:00;;;;;;;133.02;49.03;;;6.60;99.90;;;;;;5074895;28;20055;-90
2021/01/29 02:21:50;;;;;;;168.90;53.33;;;6.70;99.90;;;;;;5074227;28;20128;-90
2021/01/29 02:24:53;;;;;;;170.27;53.42;;;6.70;99.90;;;;;;5075791;28;20025;-89
2021/01/29 02:27:41;;;;;;;112.90;43.67;;;6.80;99.90;;;;;;5074480;28;20044;-89
2021/01/29 02:30:16;;;;;;;136.85;50.95;;;6.80;99.90;;;;;;5075291;28;20035;-89
2021/01/29 02:32:54;;;;;;;;;;;6.90;99.90;;;;;;5073924;28;20064;-89
2021/01/29 02:35:51;;;;;;;170.95;56.47;;;6.90;99.90;;;;;;5074218;28;19939;-90
2021/01/29 02:38:23;;;;;;;122.07;48.08;;;6.90;99.90;;;;;;5075000;28;20032;-89
2021/01/29 02:41:17;;;;;;;148.15;53.10;;;7.00;99.90;;;;;;5077637;28;20123;-89
2021/01/29 02:43:50;;;;;;;120.37;47.93;;;7.00;99.90;;;;;;5046149;28;20040;-88
2021/01/29 02:46:25;;;;;;;104.55;43.22;;;7.10;99.90;;;;;;5074176;28;20082;-89
2021/01/29 02:49:21;;;;;;;102.47;43.67;;;7.10;99.90;;;;;;5073839;28;20035;-89
2021/01/29 02:52:00;;;;;;;93.45;41.85;;;7.20;99.90;;;;;;5073455;28;20032;-86
2021/01/29 02:54:55;;;;;;;127.70;47.17;;;7.20;99.90;;;;;;5073246;28;20040;-89
2021/01/29 02:57:59;;;;;;;170.18;55.40;;;7.20;99.90;;;;;;5073195;28;20027;-89
2021/01/29 03:00:45;;;;;;;248.25;68.43;;;7.20;99.90;;;;;;5073404;28;20467;-89
2021/01/29 03:03:29;;;;;;;175.65;58.03;;;7.20;99.90;;;;;;5073252;28;20032;-89
2021/01/29 03:06:01;;;;;;;258.60;72.38;;;7.30;99.90;;;;;;5068352;28;20032;-90
2021/01/29 03:08:47;;;;;;;102.10;43.20;;;7.40;99.90;;;;;;5072973;28;20028;-87
2021/01/29 03:11:22;;;;;;;83.28;39.13;;;7.40;99.90;;;;;;5073160;28;20029;-89
2021/01/29 03:14:04;;;;;;;192.02;63.50;;;7.50;99.90;;;;;;5072839;28;20136;-88
2021/01/29 03:16:36;;;;;;;102.80;44.65;;;7.40;99.90;;;;;;5072716;28;20024;-93
2021/01/29 03:19:19;;;;;;;106.97;44.55;;;7.50;99.90;;;;;;5073115;28;20052;-89
2021/01/29 03:21:51;;;;;;;103.53;45.00;;;7.50;99.90;;;;;;5074206;28;20082;-89
2021/01/29 03:24:26;;;;;;;134.50;51.53;;;7.60;99.90;;;;;;5072794;28;20029;-89
2021/01/29 03:27:16;;;;;;;110.60;46.90;;;7.60;99.90;;;;;;5072290;28;20024;-89
2021/01/29 03:29:46;;;;;;;194.70;59.60;;;7.70;99.90;;;;;;5072493;28;20048;-89
2021/01/29 03:32:17;;;;;;;112.00;45.55;;;7.60;99.90;;;;;;5072041;28;20035;-90
2021/01/29 03:35:02;;;;;;;241.63;72.60;;;7.70;99.90;;;;;;5072241;28;20037;-90
2021/01/29 03:37:42;;;;;;;192.15;59.38;;;7.60;99.90;;;;;;5071924;28;20060;-90
2021/01/29 03:40:12;;;;;;;96.80;41.85;;;7.70;99.90;;;;;;5073830;28;20086;-89
2021/01/29 03:42:53;;;;;;;110.45;44.63;;;7.70;99.90;;;;;;5072267;28;20113;-90
2021/01/29 03:45:37;;;;;;;153.85;58.42;;;7.70;99.90;;;;;;5072737;28;20036;-90
2021/01/29 03:48:18;;;;;;;123.33;50.90;;;7.70;99.90;;;;;;5072359;28;20029;-90
2021/01/29 03:51:10;;;;;;;108.28;44.40;;;7.70;99.90;;;;;;5072386;28;20275;-90
2021/01/29 03:53:38;;;;;;;89.38;41.65;;;7.80;99.90;;;;;;5072216;28;20078;-89
2021/01/29 03:56:26;;;;;;;148.32;53.33;;;7.80;99.90;;;;;;5071795;28;20059;-88
2021/01/29 03:59:16;;;;;;;85.45;37.88;;;7.80;99.90;;;;;;5071765;28;20025;-88
2021/01/29 04:02:07;;;;;;;76.63;36.78;;;7.80;99.90;;;;;;5072195;28;20044;-88
2021/01/29 04:05:16;;;;;;;266.80;75.53;;;7.80;99.90;;;;;;5072166;28;20028;-89
2021/01/29 04:07:51;;;;;;;127.32;47.15;;;7.70;99.90;;;;;;5073351;28;20062;-89
2021/01/29 04:10:20;;;;;;;248.88;72.22;;;7.80;99.90;;;;;;5071937;28;20039;-88
2021/01/29 04:12:55;;;;;;;119.35;45.95;;;7.70;99.90;;;;;;5072105;28;20536;-88
2021/01/29 04:15:44;;;;;;;96.50;43.50;;;7.70;99.90;;;;;;5073091;28;20389;-89
2021/01/29 04:18:20;;;;;;;64.65;32.63;;;7.80;99.90;;;;;;5072117;28;20093;-89
2021/01/29 04:21:05;;;;;;;72.88;33.50;;;8.00;99.90;;;;;;5071409;28;20053;-90
2021/01/29 04:23:50;;;;;;;74.97;34.25;;;8.30;99.90;;;;;;5071813;28;20036;-89
2021/01/29 04:26:20;;;;;;;65.07;30.58;;;8.30;99.90;;;;;;5073351;28;20056;-88
2021/01/29 04:29:04;;;;;;;61.05;28.73;;;8.40;99.90;;;;;;5072061;28;20020;-89
2021/01/29 04:31:34;;;;;;;46.58;22.35;;;8.40;99.90;;;;;;5071978;28;20063;-89
2021/01/29 04:34:08;;;;;;;31.02;15.45;;;8.40;99.90;;;;;;5071624;28;20024;-89
2021/01/29 04:36:36;;;;;;;21.00;9.05;;;8.50;99.90;;;;;;5071987;28;20036;-89
2021/01/29 04:39:21;;;;;;;17.50;7.95;;;8.50;99.90;;;;;;5071805;28;20029;-89
2021/01/29 04:41:56;;;;;;;10.98;5.03;;;8.50;99.90;;;;;;5056414;28;20062;-88
2021/01/29 04:44:30;;;;;;;;;;;8.60;99.90;;;;;;5072552;28;20036;-89
2021/01/29 04:47:02;;;;;;;12.70;5.00;;;8.60;99.90;;;;;;5071876;28;19908;-89
2021/01/29 04:50:04;;;;;;;7.25;3.20;;;8.60;99.90;;;;;;5072171;28;20056;-89
2021/01/29 04:52:59;;;;;;;8.07;3.55;;;8.50;99.90;;;;;;5075267;28;20463;-89
2021/01/29 04:55:35;;;;;;;15.17;6.53;;;8.60;99.90;;;;;;5076841;28;20082;-89
2021/01/29 04:58:30;;;;;;;12.48;3.10;;;8.50;99.90;;;;;;5075368;28;20028;-90
2021/01/29 05:00:59;;;;;;;13.68;4.07;;;8.50;99.90;;;;;;5071397;28;20037;-88
2021/01/29 05:03:47;;;;;;;15.68;4.30;;;8.50;99.90;;;;;;5075085;28;20075;-89
2021/01/29 05:06:50;;;;;;;25.38;6.03;;;8.50;99.90;;;;;;5075092;28;20078;-88
2021/01/29 05:09:46;;;;;;;20.25;4.28;;;8.50;99.90;;;;;;5074792;28;20106;-89
2021/01/29 05:12:24;;;;;;;27.95;4.38;;;8.50;99.90;;;;;;5075049;28;20056;-89
2021/01/29 05:14:54;;;;;;;20.40;4.20;;;8.50;99.90;;;;;;5074540;28;20099;-89
2021/01/29 05:17:38;;;;;;;18.92;3.60;;;8.40;99.90;;;;;;5074844;28;20032;-89
2021/01/29 05:20:57;;;;;;;31.42;4.50;;;8.50;99.90;;;;;;5075817;28;20052;-88
2021/01/29 05:24:00;;;;;;;26.95;5.15;;;8.50;99.90;;;;;;5073784;28;20111;-89
2021/01/29 05:26:41;;;;;;;19.92;4.25;;;8.50;99.90;;;;;;5075403;28;20102;-89
2021/01/29 05:29:23;;;;;;;21.27;3.30;;;8.50;99.90;;;;;;5076458;28;20052;-90
2021/01/29 05:32:20;;;;;;;12.43;3.03;;;8.60;99.90;;;;;;5075452;28;20024;-88
2021/01/29 05:35:12;;;;;;;12.10;3.05;;;8.60;99.90;;;;;;5074632;28;20036;-89
2021/01/29 05:38:17;;;;;;;24.42;3.90;;;8.60;99.90;;;;;;5076219;28;20035;-88
2021/01/29 05:41:01;;;;;;;16.65;4.35;;;8.60;99.90;;;;;;5074922;28;20025;-91
2021/01/29 05:43:50;;;;;;;19.98;3.92;;;8.60;99.90;;;;;;5074758;28;20028;-90
2021/01/29 05:46:32;;;;;;;27.13;4.13;;;8.60;99.90;;;;;;5074922;28;20029;-88
2021/01/29 05:49:19;;;;;;;21.30;3.80;;;8.60;99.90;;;;;;5074138;28;20024;-89
2021/01/29 05:52:08;;;;;;;22.27;4.63;;;8.60;99.90;;;;;;5074106;28;20043;-90
2021/01/29 05:55:10;;;;;;;30.00;5.95;;;8.60;99.90;;;;;;5074278;28;20390;-89
2021/01/29 05:58:14;;;;;;;28.45;5.22;;;8.60;99.90;;;;;;5074716;28;20025;-90
2021/01/29 06:01:08;;;;;;;42.03;5.80;;;8.60;99.90;;;;;;5073765;28;20021;-90
2021/01/29 06:03:54;;;;;;;37.70;5.90;;;8.50;99.90;;;;;;5074422;28;20024;-89
2021/01/29 06:06:20;;;;;;;25.58;4.80;;;8.60;99.90;;;;;;5074390;28;20025;-90
2021/01/29 06:09:13;;;;;;;23.67;5.63;;;8.60;99.90;;;;;;5075508;28;20028;-92
2021/01/29 06:11:51;;;;;;;31.10;5.20;;;8.60;99.90;;;;;;5074162;28;20028;-89
2021/01/29 06:14:43;;;;;;;27.23;4.88;;;8.60;99.90;;;;;;5073929;28;20028;-89
2021/01/29 06:17:37;;;;;;;27.75;5.25;;;8.60;99.90;;;;;;5073739;28;20025;-89
2021/01/29 06:20:27;;;;;;;33.22;5.80;;;8.70;99.90;;;;;;5073589;28;20144;-89
2021/01/29 06:23:08;;;;;;;35.35;4.72;;;8.70;99.90;;;;;;5073611;28;20115;-89
2021/01/29 06:26:03;;;;;;;34.10;5.70;;;8.70;99.90;;;;;;5075139;28;20047;-89
2021/01/29 06:29:03;;;;;;;35.47;6.07;;;8.70;99.90;;;;;;5073917;28;20123;-91
2021/01/29 06:31:45;;;;;;;23.60;6.03;;;8.60;99.90;;;;;;5075536;28;20085;-90
2021/01/29 06:34:26;;;;;;;34.20;5.93;;;8.70;99.90;;;;;;5075141;28;20025;-90
2021/01/29 06:37:10;;;;;;;33.67;6.10;;;8.60;99.90;;;;;;5075035;28;20059;-90
2021/01/29 06:39:47;;;;;;;40.60;7.68;;;8.60;99.90;;;;;;5077176;28;20035;-91
2021/01/29 06:42:43;;;;;;;40.58;7.10;;;8.60;99.90;;;;;;5079281;28;20557;-91
2021/01/29 06:45:38;;;;;;;32.80;5.65;;;8.60;99.90;;;;;;5092484;28;20119;-89
2021/01/29 06:48:41;;;;;;;33.13;6.22;;;8.70;99.90;;;;;;5078591;28;20059;-89
2021/01/29 06:51:29;;;;;;;30.10;6.68;;;8.70;99.90;;;;;;5082813;28;20036;-86
2021/01/29 06:54:30;;;;;;;24.40;5.43;;;8.70;99.90;;;;;;5094288;28;20024;-92
2021/01/29 06:57:18;;;;;;;27.20;4.68;;;8.70;99.90;;;;;;5091779;28;20036;-91
2021/01/29 06:59:55;;;;;;;29.08;5.80;;;8.70;99.90;;;;;;5097702;28;20075;-89
2021/01/29 07:02:39;;;;;;;20.10;5.32;;;8.80;99.90;;;;;;5096621;28;20037;-90
2021/01/29 07:05:24;;;;;;;29.90;6.10;;;8.80;99.90;;;;;;5094281;28;20062;-91
2021/01/29 07:08:20;;;;;;;16.60;4.68;;;8.80;99.90;;;;;;5084845;28;20535;-89
2021/01/29 07:10:55;;;;;;;27.00;5.22;;;8.80;99.90;;;;;;5095286;28;20033;-90
2021/01/29 07:13:39;;;;;;;;;;;8.80;99.90;;;;;;5096568;28;20015;-91
2021/01/29 07:16:34;;;;;;;28.20;5.93;;;8.80;99.90;;;;;;5096166;28;19922;-92
2021/01/29 07:19:18;;;;;;;30.93;6.47;;;8.80;99.90;;;;;;5095780;28;20036;-92
2021/01/29 07:22:01;;;;;;;37.95;7.93;;;8.80;99.90;;;;;;5096954;28;20346;-91
2021/01/29 07:25:05;;;;;;;42.35;8.70;;;8.80;99.90;;;;;;5095651;28;20008;-93
2021/01/29 07:27:48;;;;;;;50.88;7.95;;;8.80;99.90;;;;;;5096325;28;20041;-91
2021/01/29 07:30:23;;;;;;;46.73;9.87;;;8.80;99.90;;;;;;5092725;28;20016;-92
2021/01/29 07:32:57;;;;;;;54.35;9.93;;;8.80;99.90;;;;;;5095254;28;20270;-93
2021/01/29 07:35:31;;;;;;;49.08;9.35;;;8.80;99.90;;;;;;5096488;28;20063;-92
2021/01/29 07:38:16;;;;;;;;;;;8.80;99.90;;;;;;5096906;28;20013;-92
2021/01/29 07:41:20;;;;;;;57.63;10.80;;;8.80;99.90;;;;;;5088566;28;19908;-93
2021/01/29 07:44:26;;;;;;;70.50;11.73;;;8.70;99.90;;;;;;5074083;28;20542;-92
2021/01/29 07:47:16;;;;;;;;;;;8.70;99.90;;;;;;5075844;28;20038;-93
2021/01/29 07:50:12;;;;;;;62.15;12.43;;;8.70;99.90;;;;;;5074293;28;19912;-92
2021/01/29 07:53:22;;;;;;;60.70;10.77;;;8.80;99.90;;;;;;5075097;28;20031;-93
2021/01/29 07:56:17;;;;;;;62.10;12.70;;;8.80;99.90;;;;;;5049486;28;20032;-92
2021/01/29 07:59:06;;;;;;;64.78;15.23;;;8.70;99.90;;;;;;5076188;28;20024;-92
2021/01/29 08:01:35;;;;;;;64.57;11.50;;;8.70;99.90;;;;;;5024800;28;20029;-92
2021/01/29 08:04:18;;;;;;;61.83;11.20;;;8.70;99.90;;;;;;5076276;28;20028;-93
2021/01/29 08:06:53;;;;;;;69.82;12.20;;;8.70;99.90;;;;;;5073880;28;20166;-92
2021/01/29 08:09:28;;;;;;;65.30;10.35;;;8.70;99.90;;;;;;5075915;28;20025;-92
2021/01/29 08:11:58;;;;;;;;;;;8.70;99.90;;;;;;5074191;28;20034;-90
2021/01/29 08:14:42;;;;;;;80.97;11.20;;;8.70;99.90;;;;;;5074035;28;19912;-90
2021/01/29 08:17:48;;;;;;;63.15;11.73;;;8.70;99.90;;;;;;5073179;28;20028;-91
2021/01/29 08:20:39;;;;;;;66.55;12.93;;;8.70;99.90;;;;;;5074290;28;20060;-92
2021/01/29 08:23:46;;;;;;;71.00;12.32;;;8.70;99.90;;;;;;5072476;28;20126;-89
2021/01/29 08:26:30;;;;;;;70.03;13.07;;;8.70;99.90;;;;;;5076701;28;20040;-90
2021/01/29 08:29:08;;;;;;;66.45;12.38;;;8.60;99.90;;;;;;5076996;28;20028;-90
2021/01/29 08:31:58;;;;;;;66.53;11.73;;;8.60;99.90;;;;;;5077409;28;20481;-90
2021/01/29 08:34:36;;;;;;;77.15;13.15;;;8.60;99.90;;;;;;5076833;28;20479;-91
2021/01/29 08:37:12;;;;;;;77.22;13.32;;;8.60;99.90;;;;;;5075940;28;20028;-91
2021/01/29 08:39:57;;;;;;;88.13;15.05;;;8.60;99.90;;;;;;5077977;28;20107;-92
2021/01/29 08:43:02;;;;;;;77.32;13.60;;;8.60;99.90;;;;;;5075851;28;20024;-91
2021/01/29 08:46:09;;;;;;;59.58;12.93;;;8.60;99.90;;;;;;5077601;28;20112;-91
2021/01/29 08:49:02;;;;;;;59.38;13.02;;;8.60;99.90;;;;;;4984023;28;20054;-90
2021/01/29 08:51:37;;;;;;;65.82;13.82;;;8.60;99.90;;;;;;5020155;28;20037;-90
2021/01/29 08:54:58;;;;;;;62.70;12.55;;;8.70;99.90;;;;;;5088299;28;20028;-90
2021/01/29 08:57:39;;;;;;;74.22;12.35;;;8.60;99.90;;;;;;5056852;28;20040;-89
2021/01/29 09:00:07;;;;;;;64.53;10.60;;;8.60;99.90;;;;;;5084695;28;20115;-89
2021/01/29 09:02:54;;;;;;;53.38;11.25;;;8.60;99.90;;;;;;5070454;28;20028;-88
2021/01/29 09:05:24;;;;;;;68.57;12.40;;;8.70;99.90;;;;;;5089237;28;20048;-89
2021/01/29 09:08:04;;;;;;;73.25;11.85;;;8.70;99.90;;;;;;5086225;28;20027;-89
2021/01/29 09:11:07;;;;;;;63.63;11.68;;;8.70;99.90;;;;;;5079912;28;20024;-88
2021/01/29 09:13:34;;;;;;;70.13;14.20;;;8.70;99.90;;;;;;5083754;28;20032;-88
2021/01/29 09:16:10;;;;;;;68.88;12.65;;;8.70;99.90;;;;;;5065864;28;20108;-88
2021/01/29 09:18:55;;;;;;;66.65;14.00;;;8.70;99.90;;;;;;5088484;28;20025;-89
2021/01/29 09:21:28;;;;;;;63.72;12.70;;;8.70;99.90;;;;;;5088879;28;20071;-89
2021/01/29 09:24:08;;;;;;;66.53;13.50;;;8.70;99.90;;;;;;5085078;28;20043;-89
2021/01/29 09:26:45;;;;;;;72.57;13.00;;;8.70;99.90;;;;;;5078428;28;20028;-89
2021/01/29 09:29:29;;;;;;;81.07;13.90;;;8.70;99.90;;;;;;5079646;28;20025;-89
2021/01/29 09:32:04;;;;;;;80.88;13.45;;;8.70;99.90;;;;;;5079031;28;20031;-90
2021/01/29 09:34:47;;;;;;;;;;;8.70;99.90;;;;;;5077826;28;20043;-90
2021/01/29 09:37:20;;;;;;;78.10;13.38;;;8.70;99.90;;;;;;5077524;28;19901;-90
2021/01/29 09:40:07;;;;;;;79.47;14.13;;;8.70;99.90;;;;;;5078228;28;20021;-88
2021/01/29 09:42:50;;;;;;;76.15;14.07;;;8.70;99.90;;;;;;5086023;28;20051;-90
2021/01/29 09:45:25;;;;;;;65.72;13.45;;;8.70;99.90;;;;;;5076217;28;20419;-89
2021/01/29 09:47:57;;;;;;;;;;;8.70;99.90;;;;;;5056663;28;20021;-90
2021/01/29 09:50:25;;;;;;;65.85;14.90;;;8.60;99.90;;;;;;5076655;28;19900;-89
2021/01/29 09:53:05;;;;;;;75.97;14.07;;;8.60;99.90;;;;;;5077038;28;20028;-89
2021/01/29 09:56:13;;;;;;;66.85;13.38;;;8.60;99.90;;;;;;5075777;28;20036;-89
2021/01/29 09:59:07;;;;;;;64.35;13.32;;;8.70;99.90;;;;;;5074919;28;20473;-89
2021/01/29 10:01:40;;;;;;;75.90;13.10;;;8.70;99.90;;;;;;5074245;28;20032;-89
2021/01/29 10:04:06;;;;;;;86.00;13.73;;;8.70;99.90;;;;;;5073812;28;20040;-90
2021/01/29 10:06:55;;;;;;;77.43;14.48;;;8.70;99.90;;;;;;5074501;28;20121;-90
2021/01/29 10:09:34;;;;;;;72.80;13.70;;;8.70;99.90;;;;;;5080964;28;20024;-89
2021/01/29 10:12:08;;;;;;;87.10;15.55;;;8.70;99.90;;;;;;5085981;28;20024;-89
2021/01/29 10:14:55;;;;;;;71.93;12.85;;;8.80;99.90;;;;;;5085535;28;20035;-89
2021/01/29 10:17:34;;;;;;;71.75;14.02;;;8.90;99.90;;;;;;5075096;28;20024;-90
2021/01/29 10:20:33;;;;;;;79.35;13.68;;;8.80;99.90;;;;;;5075085;28;20045;-90
2021/01/29 10:23:37;;;;;;;93.18;16.05;;;8.90;99.90;;;;;;5075571;28;20084;-90
2021/01/29 10:26:28;;;;;;;73.00;15.43;;;8.90;99.90;;;;;;5077890;28;20029;-88
2021/01/29 10:29:06;;;;;;;77.40;13.38;;;8.90;99.90;;;;;;5074885;28;20081;-90
2021/01/29 10:31:46;;;;;;;79.85;16.95;;;8.90;99.90;;;;;;5074346;28;20021;-88
2021/01/29 10:34:33;;;;;;;73.50;13.23;;;9.00;99.90;;;;;;5074494;28;20028;-88
2021/01/29 10:37:17;;;;;;;67.60;12.82;;;9.00;99.90;;;;;;5074399;28;20339;-89
2021/01/29 10:40:26;;;;;;;82.70;13.68;;;9.00;99.90;;;;;;5074945;28;20090;-87
2021/01/29 10:43:21;;;;;;;67.05;14.45;;;9.10;99.90;;;;;;4996187;28;20113;-88
2021/01/29 10:46:02;;;;;;;77.90;16.48;;;9.10;99.90;;;;;;5043111;28;20103;-87
2021/01/29 10:48:34;;;;;;;80.30;12.93;;;9.10;99.90;;;;;;5079014;28;20031;-87
2021/01/29 10:51:10;;;;;;;71.88;14.57;;;9.20;99.90;;;;;;5080365;28;20030;-87
2021/01/29 10:53:36;;;;;;;77.65;14.20;;;9.20;99.90;;;;;;5077186;28;20020;-88
2021/01/29 10:56:13;;;;;;;66.68;13.95;;;9.20;99.90;;;;;;5073868;28;20032;-88
2021/01/29 10:58:51;;;;;;;61.92;11.90;;;9.30;99.90;;;;;;5074185;28;20027;-88
2021/01/29 11:01:36;;;;;;;67.38;12.38;;;9.20;99.90;;;;;;5073901;28;20111;-88
2021/01/29 11:04:24;;;;;;;69.65;12.65;;;9.20;99.90;;;;;;5073473;28;20374;-88
2021/01/29 11:07:06;;;;;;;60.97;12.50;;;9.30;99.90;;;;;;5078274;28;20021;-87
2021/01/29 11:09:37;;;;;;;69.75;12.85;;;9.30;99.90;;;;;;5076730;28;20120;-88
2021/01/29 11:12:34;;;;;;;61.72;13.05;;;9.30;99.90;;;;;;5079002;28;20039;-88
2021/01/29 11:15:21;;;;;;;67.40;13.05;;;9.30;99.90;;;;;;5079208;28;20033;-88
2021/01/29 11:18:00;;;;;;;66.30;12.82;;;9.40;99.90;;;;;;5081814;28;20095;-89
2021/01/29 11:20:32;;;;;;;68.05;13.38;;;9.40;99.90;;;;;;5077681;28;20072;-90
2021/01/29 11:23:17;;;;;;;67.22;13.32;;;9.50;99.90;;;;;;5081399;28;20036;-89
2021/01/29 11:25:49;;;;;;;68.65;13.18;;;9.40;99.90;;;;;;5081703;28;20054;-91
2021/01/29 11:28:39;;;;;;;72.88;13.68;;;9.40;99.90;;;;;;5073679;28;20028;-93
2021/01/29 11:31:19;;;;;;;82.45;13.85;;;9.40;99.90;;;;;;5074877;28;20023;-89
2021/01/29 11:33:50;;;;;;;73.03;15.07;;;9.40;99.90;;;;;;5074346;28;20119;-90
2021/01/29 11:36:46;;;;;;;65.75;11.65;;;9.40;99.90;;;;;;5074506;28;20051;-93
2021/01/29 11:39:50;;;;;;;54.40;12.43;;;9.40;99.90;;;;;;5077978;28;20024;-92
2021/01/29 11:42:35;;;;;;;75.07;15.27;;;9.40;99.90;;;;;;5024430;28;20029;-90
2021/01/29 11:45:09;;;;;;;68.95;11.70;;;9.40;99.90;;;;;;5074438;28;20027;-91
2021/01/29 11:48:08;;;;;;;72.00;11.68;;;9.30;99.90;;;;;;5073996;28;20021;-90
2021/01/29 11:50:54;;;;;;;67.50;11.27;;;9.30;99.90;;;;;;5074920;28;20113;-90
2021/01/29 11:53:57;;;;;;;61.78;11.02;;;9.30;99.90;;;;;;5074509;28;20084;-92
2021/01/29 11:56:29;;;;;;;68.78;12.57;;;9.30;99.90;;;;;;5075855;28;20447;-91
2021/01/29 11:59:23;;;;;;;60.20;12.77;;;9.30;99.90;;;;;;5075522;28;20031;-91
2021/01/29 12:02:16;;;;;;;64.03;11.25;;;9.30;99.90;;;;;;5079361;28;20040;-91
2021/01/29 12:05:17;;;;;;;53.30;11.13;;;9.20;99.90;;;;;;5067039;28;20032;-92
2021/01/29 12:08:08;;;;;;;60.03;12.68;;;9.20;99.90;;;;;;5083602;28;20056;-91
2021/01/29 12:10:59;;;;;;;61.95;10.75;;;9.20;99.90;;;;;;5078588;28;20035;-92
2021/01/29 12:13:39;;;;;;;75.38;13.82;;;9.20;99.90;;;;;;5078007;28;20344;-91
2021/01/29 12:16:25;;;;;;;60.17;13.20;;;9.30;99.90;;;;;;5074827;28;20037;-91
2021/01/29 12:18:53;;;;;;;65.35;11.63;;;9.40;99.90;;;;;;5063994;28;20044;-92
2021/01/29 12:21:30;;;;;;;66.03;11.75;;;9.30;99.90;;;;;;5079312;28;20049;-90
2021/01/29 12:24:29;;;;;;;70.03;11.43;;;9.40;99.90;;;;;;5077770;28;20058;-89
2021/01/29 12:27:08;;;;;;;65.55;11.50;;;9.30;99.90;;;;;;5078376;28;20036;-90
2021/01/29 12:29:57;;;;;;;;;;;9.20;99.90;;;;;;5077686;28;20078;-90
2021/01/29 12:32:24;;;;;;;69.60;12.77;;;9.30;99.90;;;;;;5030724;28;19937;-90
2021/01/29 12:35:19;;;;;;;53.65;11.20;;;9.30;99.90;;;;;;5076933;28;20029;-90
2021/01/29 12:38:09;;;;;;;62.95;10.90;;;9.30;99.90;;;;;;5077373;28;20525;-90
2021/01/29 12:40:40;;;;;;;57.53;10.73;;;9.30;99.90;;;;;;5077168;28;20034;-90
2021/01/29 12:43:20;;;;;;;58.53;11.00;;;9.40;99.90;;;;;;5077299;28;20032;-89
2021/01/29 12:46:24;;;;;;;56.35;10.60;;;9.40;99.90;;;;;;5078444;28;20054;-89
2021/01/29 12:49:09;;;;;;;46.88;10.95;;;9.40;99.90;;;;;;5076091;28;20020;-89
2021/01/29 12:52:00;;;;;;;62.40;12.57;;;9.30;99.90;;;;;;5076238;28;20043;-89
2021/01/29 12:55:05;;;;;;;56.47;9.90;;;9.40;99.90;;;;;;5075604;28;20529;-88
2021/01/29 12:57:32;;;;;;;62.35;11.82;;;9.40;99.90;;;;;;5054051;28;20057;-90
2021/01/29 13:00:07;;;;;;;56.28;10.60;;;9.40;99.90;;;;;;5076145;28;20526;-89
2021/01/29 13:03:10;;;;;;;45.80;9.13;;;9.40;99.90;;;;;;5079330;28;20032;-90
2021/01/29 13:06:06;;;;;;;56.17;10.45;;;9.40;99.90;;;;;;5081540;28;20025;-89
2021/01/29 13:09:06;;;;;;;45.08;9.30;;;9.40;99.90;;;;;;5079680;28;20028;-90
2021/01/29 13:12:05;;;;;;;56.50;10.65;;;9.40;99.90;;;;;;5078139;28;20373;-89
2021/01/29 13:15:00;;;;;;;61.05;10.57;;;9.40;99.90;;;;;;5077787;28;20031;-93
2021/01/29 13:17:32;;;;;;;53.97;10.50;;;9.40;99.90;;;;;;5080997;28;20048;-92
2021/01/29 13:20:36;;;;;;;50.25;10.25;;;9.40;99.90;;;;;;5077976;28;20040;-88
2021/01/29 13:23:23;;;;;;;56.92;9.15;;;9.40;99.90;;;;;;5073516;28;20378;-88
2021/01/29 13:25:59;;;;;;;52.58;10.60;;;9.50;99.90;;;;;;5078677;28;20100;-88
2021/01/29 13:28:30;;;;;;;57.17;11.13;;;9.50;99.90;;;;;;5078449;28;20484;-89
2021/01/29 13:31:16;;;;;;;54.55;11.65;;;9.50;99.90;;;;;;5063097;28;20064;-89
2021/01/29 13:33:49;;;;;;;46.55;10.23;;;9.50;99.90;;;;;;5061673;28;20037;-89
2021/01/29 13:36:34;;;;;;;51.03;9.85;;;9.50;99.90;;;;;;5078996;28;20028;-90
2021/01/29 13:39:18;;;;;;;63.42;11.02;;;9.60;99.90;;;;;;5060332;28;20037;-89
2021/01/29 13:41:56;;;;;;;50.40;9.48;;;9.50;99.90;;;;;;5088262;28;20021;-84
2021/01/29 13:44:41;;;;;;;52.67;10.23;;;9.50;99.90;;;;;;5087236;28;20058;-90
2021/01/29 13:47:16;;;;;;;48.25;9.45;;;9.50;99.90;;;;;;5078621;28;20451;-90
2021/01/29 13:49:45;;;;;;;61.88;11.55;;;9.40;99.90;;;;;;5065120;28;20044;-91
2021/01/29 13:52:35;;;;;;;51.92;10.13;;;9.40;99.90;;;;;;5065353;28;20466;-90
2021/01/29 13:55:25;;;;;;;48.42;10.10;;;9.40;99.90;;;;;;5079222;28;20036;-89